BAW9103 EGFF-EGLL
Flight info
| Callsign | BAW9103 |
|---|---|
| Flight time | N/A |
| Altitude | 13000 |
| Route | SIRIC |
| Aircraft | B77W/H-V/N |
Departure
| Time | 2026-04-30 13:41 |
|---|---|
| Airport | Cardiff International Airport (EGFF) |
Arrival
| Time | N/A |
|---|---|
| Airport | London Heathrow Airport (EGLL) |
| Time | Latitude | Longitude | Altitude | Speed | Heading |
|---|---|---|---|---|---|
| 2026-04-30 13:41 | 51.40044 | -3.35539 | 222 ft | 0 kts | 117° |
| 2026-04-30 13:41 | 51.39938 | -3.35204 | 223 ft | 101 kts | 116° |
| 2026-04-30 13:41 | 51.39436 | -3.33592 | 928 ft | 187 kts | 115° |
| 2026-04-30 13:42 | 51.38965 | -3.31657 | 2947 ft | 200 kts | 107° |
| 2026-04-30 13:42 | 51.38791 | -3.29310 | 3899 ft | 225 kts | 96° |
| 2026-04-30 13:42 | 51.38698 | -3.24916 | 5939 ft | 251 kts | 96° |
| 2026-04-30 13:43 | 51.38651 | -3.22006 | 7229 ft | 263 kts | 96° |
| 2026-04-30 13:43 | 51.38605 | -3.19061 | 8659 ft | 267 kts | 96° |
| 2026-04-30 13:43 | 51.38556 | -3.16107 | 10098 ft | 272 kts | 96° |
| 2026-04-30 13:43 | 51.38500 | -3.13016 | 11261 ft | 285 kts | 96° |
| 2026-04-30 13:44 | 51.38436 | -3.09756 | 12294 ft | 303 kts | 96° |
| 2026-04-30 13:44 | 51.38364 | -3.06255 | 12987 ft | 321 kts | 96° |
| 2026-04-30 13:44 | 51.38293 | -3.02694 | 13131 ft | 322 kts | 96° |
| 2026-04-30 13:44 | 51.38221 | -2.99107 | 13130 ft | 322 kts | 96° |
| 2026-04-30 13:45 | 51.38077 | -2.92038 | 13122 ft | 320 kts | 96° |
| 2026-04-30 13:45 | 51.38000 | -2.88485 | 13123 ft | 319 kts | 96° |
| 2026-04-30 13:45 | 51.37922 | -2.84934 | 13113 ft | 319 kts | 96° |
| 2026-04-30 13:46 | 51.37843 | -2.81387 | 13122 ft | 319 kts | 96° |
| 2026-04-30 13:46 | 51.37766 | -2.77844 | 13156 ft | 318 kts | 96° |
| 2026-04-30 13:46 | 51.37699 | -2.74303 | 13119 ft | 319 kts | 96° |
| 2026-04-30 13:46 | 51.37693 | -2.73957 | 13113 ft | 319 kts | 96° |
| 2026-04-30 13:47 | 51.37619 | -2.70756 | 13075 ft | 319 kts | 97° |
| 2026-04-30 13:47 | 51.37440 | -2.67222 | 13034 ft | 319 kts | 101° |
| 2026-04-30 13:47 | 51.37124 | -2.63716 | 13027 ft | 317 kts | 103° |
| 2026-04-30 13:47 | 51.36700 | -2.60303 | 13040 ft | 315 kts | 107° |
| 2026-04-30 13:48 | 51.36113 | -2.56924 | 13042 ft | 313 kts | 112° |
| 2026-04-30 13:48 | 51.35301 | -2.53751 | 12996 ft | 312 kts | 119° |
| 2026-04-30 13:48 | 51.34161 | -2.50723 | 12848 ft | 315 kts | 128° |
| 2026-04-30 13:48 | 51.33675 | -2.49722 | 12775 ft | 316 kts | 131° |
| 2026-04-30 13:50 | 51.31811 | -2.46796 | 12633 ft | 318 kts | 141° |
| 2026-04-30 13:50 | 51.30007 | -2.44783 | 12692 ft | 315 kts | 149° |
| 2026-04-30 13:51 | 51.28076 | -2.43180 | 12847 ft | 310 kts | 155° |
| 2026-04-30 13:51 | 51.26066 | -2.41976 | 12976 ft | 307 kts | 161° |
| 2026-04-30 13:51 | 51.23990 | -2.41129 | 12992 ft | 308 kts | 166° |
| 2026-04-30 13:51 | 51.21863 | -2.40576 | 12922 ft | 312 kts | 171° |
| 2026-04-30 13:52 | 51.19691 | -2.40273 | 12840 ft | 315 kts | 174° |
| 2026-04-30 13:52 | 51.17494 | -2.40148 | 12832 ft | 316 kts | 176° |
| 2026-04-30 13:52 | 51.15306 | -2.40181 | 12899 ft | 314 kts | 179° |
| 2026-04-30 13:52 | 51.13126 | -2.40354 | 12971 ft | 312 kts | 180° |
| 2026-04-30 13:53 | 51.10998 | -2.40611 | 12996 ft | 312 kts | 181° |
| 2026-04-30 13:53 | 51.09363 | -2.40695 | 12921 ft | 310 kts | 175° |